Weather at Dublin Airport

Public forecast

Using degrees Celsius for public forecast. Weather courtesy of forecast.io.

Current aviation weather report (METAR) for Dublin Airport

2022/11/30 11:30 (retrieved 29 minutes ago)

EIDW 301130Z 16009KT 9999 FEW014 BKN034 10/08 Q1022 NOSIG

Aviation forecast (TAF) for Dublin Airport

2022/11/30 06:09 (retrieved 6 hours ago)

TAF EIDW 300500Z 3006/0106 16008KT 9999 SCT020 BECMG 3023/0101 VRB03KT